createdAt,value
2023-03-22T00:02:30.582Z,7.79
2023-03-22T00:05:00.507Z,7.75
2023-03-22T00:07:31.636Z,7.79
2023-03-22T00:10:01.449Z,7.88
2023-03-22T00:12:31.677Z,7.88
2023-03-22T00:15:01.465Z,7.96
2023-03-22T00:17:33.834Z,7.95
2023-03-22T00:20:06.227Z,7.89
2023-03-22T00:22:36.190Z,7.82
2023-03-22T00:25:06.698Z,7.78
2023-03-22T00:27:36.485Z,7.76
2023-03-22T00:30:11.729Z,7.79
2023-03-22T00:32:45.030Z,7.81
2023-03-22T00:35:16.780Z,7.83
2023-03-22T00:37:46.565Z,7.81
2023-03-22T00:40:18.335Z,7.70
2023-03-22T00:42:48.285Z,7.74
2023-03-22T00:45:18.128Z,7.82
2023-03-22T00:47:50.599Z,7.70
2023-03-22T00:50:21.028Z,7.66
2023-03-22T00:52:50.900Z,7.61
2023-03-22T00:55:20.984Z,7.64
2023-03-22T00:57:50.833Z,7.69
2023-03-22T01:00:21.834Z,7.74
2023-03-22T01:02:59.719Z,7.83
2023-03-22T01:05:29.838Z,7.87
2023-03-22T01:08:02.691Z,7.79
2023-03-22T01:10:32.430Z,7.72
2023-03-22T01:13:02.420Z,7.66
2023-03-22T01:15:32.225Z,7.54
2023-03-22T01:18:04.958Z,7.42
2023-03-22T01:20:35.016Z,7.33
2023-03-22T01:23:05.031Z,7.21
2023-03-22T01:25:35.076Z,7.11
2023-03-22T01:28:06.875Z,7.04
2023-03-22T01:30:37.065Z,6.93
2023-03-22T01:33:09.837Z,6.92
2023-03-22T01:35:39.985Z,6.77
2023-03-22T01:38:11.155Z,6.59
2023-03-22T01:40:47.831Z,6.43
2023-03-22T01:43:19.998Z,6.39
2023-03-22T01:45:51.603Z,6.32
2023-03-22T01:48:31.434Z,6.26
2023-03-22T01:51:07.254Z,6.21
2023-03-22T01:53:47.237Z,6.18
2023-03-22T01:56:17.371Z,6.11
2023-03-22T01:58:47.649Z,6.18
2023-03-22T02:01:21.161Z,6.13
2023-03-22T02:04:02.125Z,6.00
2023-03-22T02:06:33.002Z,5.97
2023-03-22T02:09:12.268Z,5.89
2023-03-22T02:11:46.304Z,5.92
2023-03-22T02:14:50.101Z,5.81
2023-03-22T02:17:53.265Z,5.76
2023-03-22T02:21:03.332Z,5.69
2023-03-22T02:24:01.549Z,5.66
2023-03-22T02:26:54.652Z,5.54
2023-03-22T02:29:33.109Z,5.46
2023-03-22T02:32:35.114Z,5.50
2023-03-22T02:35:30.344Z,5.51
2023-03-22T02:38:42.459Z,5.45
2023-03-22T02:41:20.700Z,5.42
2023-03-22T02:44:04.864Z,5.46
2023-03-22T02:46:44.372Z,5.45
2023-03-22T02:49:20.861Z,5.35
2023-03-22T02:51:55.822Z,5.33
2023-03-22T02:54:31.714Z,5.26
2023-03-22T02:57:08.390Z,5.24
2023-03-22T02:59:41.136Z,5.42
2023-03-22T03:02:17.380Z,5.27
2023-03-22T03:04:50.662Z,5.17
2023-03-22T03:07:24.429Z,5.16
2023-03-22T03:09:54.592Z,5.17
2023-03-22T03:12:30.271Z,5.27
2023-03-22T03:15:00.699Z,5.26
2023-03-22T03:17:47.890Z,5.11
2023-03-22T03:20:30.166Z,5.21
2023-03-22T03:23:13.864Z,5.33
2023-03-22T03:25:51.473Z,5.30
2023-03-22T03:28:38.422Z,5.17
2023-03-22T03:31:23.366Z,5.14
2023-03-22T03:34:02.155Z,5.07
2023-03-22T03:36:37.989Z,5.03
2023-03-22T03:39:11.585Z,5.10
2023-03-22T03:41:43.236Z,5.19
2023-03-22T03:44:16.815Z,5.13
2023-03-22T03:46:49.388Z,5.06
2023-03-22T03:49:20.396Z,5.05
2023-03-22T03:51:53.996Z,5.12
2023-03-22T03:54:24.824Z,5.27
2023-03-22T03:56:54.932Z,5.24
2023-03-22T03:59:27.550Z,5.12
2023-03-22T04:01:58.560Z,5.06
2023-03-22T04:04:34.795Z,5.23
2023-03-22T04:07:07.593Z,5.17
2023-03-22T04:09:41.474Z,5.03
2023-03-22T04:12:37.368Z,4.99
2023-03-22T04:15:18.925Z,4.89
2023-03-22T04:17:53.993Z,4.86
2023-03-22T04:20:26.224Z,4.86
2023-03-22T04:22:58.125Z,4.79
2023-03-22T04:25:29.944Z,4.77
2023-03-22T04:28:05.589Z,4.73
2023-03-22T04:30:40.803Z,4.64
2023-03-22T04:33:47.062Z,4.65
2023-03-22T04:36:24.830Z,4.61
2023-03-22T04:39:15.244Z,4.51
2023-03-22T04:41:52.255Z,4.58
2023-03-22T04:44:22.824Z,4.40
2023-03-22T04:46:56.449Z,4.40
2023-03-22T04:49:27.184Z,4.40
2023-03-22T04:51:58.171Z,4.42
2023-03-22T04:54:54.189Z,4.37
2023-03-22T04:57:24.712Z,4.27
2023-03-22T04:59:54.614Z,4.22
2023-03-22T05:02:27.315Z,4.16
2023-03-22T05:04:58.004Z,4.17
2023-03-22T05:07:39.299Z,4.28
2023-03-22T05:10:11.093Z,4.31
2023-03-22T05:12:41.617Z,4.53
2023-03-22T05:15:27.075Z,4.76
2023-03-22T05:17:59.453Z,5.04
2023-03-22T05:20:29.803Z,5.28
2023-03-22T05:23:21.859Z,5.06
2023-03-22T05:25:58.277Z,4.87
2023-03-22T05:28:28.771Z,4.68
2023-03-22T05:31:38.415Z,4.62
2023-03-22T05:34:12.328Z,4.42
2023-03-22T05:36:42.849Z,4.37
2023-03-22T05:39:28.230Z,4.41
2023-03-22T05:41:58.597Z,4.60
2023-03-22T05:44:28.807Z,4.75
2023-03-22T05:47:08.613Z,4.60
2023-03-22T05:49:45.016Z,4.63
2023-03-22T05:52:15.054Z,4.59
2023-03-22T05:54:54.555Z,4.53
2023-03-22T05:57:24.318Z,4.57
2023-03-22T05:59:54.103Z,4.64
2023-03-22T06:02:29.946Z,4.58
2023-03-22T06:05:02.488Z,4.56
2023-03-22T06:07:34.555Z,4.58
2023-03-22T06:10:18.396Z,4.47
2023-03-22T06:12:48.470Z,4.58
2023-03-22T06:15:26.496Z,4.72
2023-03-22T06:18:06.358Z,5.06
2023-03-22T06:20:44.079Z,5.77
2023-03-22T06:23:19.513Z,6.75
2023-03-22T06:25:50.164Z,7.61
2023-03-22T06:28:20.692Z,8.41
2023-03-22T06:30:56.324Z,9.40
2023-03-22T06:33:31.903Z,10.47
2023-03-22T06:36:11.108Z,11.51
2023-03-22T06:38:54.610Z,12.51
2023-03-22T06:41:24.465Z,13.10
2023-03-22T06:43:54.939Z,13.33
2023-03-22T06:46:43.231Z,13.79
2023-03-22T06:49:22.868Z,13.76
2023-03-22T06:51:57.916Z,14.04
2023-03-22T06:54:28.079Z,14.52
2023-03-22T06:56:57.852Z,14.93
2023-03-22T06:59:27.819Z,15.28
2023-03-22T07:01:57.728Z,15.55
2023-03-22T07:04:28.312Z,15.93
2023-03-22T07:07:01.106Z,16.08
2023-03-22T07:09:31.113Z,16.01
2023-03-22T07:12:02.824Z,16.45
2023-03-22T07:14:33.026Z,17.04
2023-03-22T07:17:16.835Z,17.80
2023-03-22T07:19:46.634Z,18.46
2023-03-22T07:22:22.282Z,19.03
2023-03-22T07:24:58.186Z,19.35
2023-03-22T07:27:31.710Z,19.64
2023-03-22T07:30:02.287Z,20.25
2023-03-22T07:32:33.337Z,21.15
2023-03-22T07:35:08.909Z,21.99
2023-03-22T07:37:41.562Z,22.84
2023-03-22T07:40:20.508Z,23.76
2023-03-22T07:42:51.136Z,24.36
2023-03-22T07:45:33.977Z,22.62
2023-03-22T07:48:31.164Z,22.26
2023-03-22T07:51:30.061Z,21.55
2023-03-22T07:54:04.826Z,22.19
2023-03-22T07:56:36.449Z,22.12
2023-03-22T07:59:06.888Z,21.62
2023-03-22T08:01:37.270Z,21.48
2023-03-22T08:04:11.190Z,22.41
2023-03-22T08:06:51.718Z,22.58
2023-03-22T08:09:24.176Z,22.78
2023-03-22T08:11:54.458Z,23.65
2023-03-22T08:14:34.039Z,24.88
2023-03-22T08:17:07.010Z,25.44
2023-03-22T08:19:37.248Z,25.17
2023-03-22T08:22:09.595Z,24.99
2023-03-22T08:25:14.314Z,23.76
2023-03-22T08:27:44.153Z,23.72
2023-03-22T08:30:15.258Z,22.92
2023-03-22T08:32:46.388Z,21.45
2023-03-22T08:35:16.388Z,22.93
2023-03-22T08:37:46.169Z,23.55
2023-03-22T08:40:20.037Z,23.58
2023-03-22T08:42:55.472Z,24.32
2023-03-22T08:45:25.258Z,24.75
2023-03-22T08:48:03.946Z,25.66
2023-03-22T08:50:40.870Z,25.01
2023-03-22T08:53:19.441Z,25.37
2023-03-22T08:56:01.752Z,25.95
2023-03-22T08:58:46.836Z,26.90
2023-03-22T09:01:32.913Z,27.59
2023-03-22T09:04:08.400Z,27.76
2023-03-22T09:06:42.982Z,26.55
2023-03-22T09:09:14.711Z,26.87
2023-03-22T09:11:49.011Z,25.81
2023-03-22T09:14:18.821Z,25.96
2023-03-22T09:16:51.862Z,26.68
2023-03-22T09:19:22.562Z,25.24
2023-03-22T09:21:52.631Z,24.70
2023-03-22T09:24:33.866Z,23.33
2023-03-22T09:27:08.761Z,23.32
2023-03-22T09:29:38.608Z,22.80
2023-03-22T09:32:13.114Z,22.27
2023-03-22T09:34:43.659Z,21.78
2023-03-22T09:37:14.770Z,22.05
2023-03-22T09:39:54.083Z,22.68
2023-03-22T09:42:35.168Z,23.82
2023-03-22T09:45:12.763Z,24.09
2023-03-22T09:47:47.055Z,22.65
2023-03-22T09:50:21.896Z,22.80
2023-03-22T09:52:53.071Z,21.80
2023-03-22T09:55:27.916Z,22.41
2023-03-22T09:58:09.244Z,23.23
2023-03-22T10:00:46.253Z,22.50
2023-03-22T10:03:28.245Z,21.55
2023-03-22T10:06:04.386Z,22.56
2023-03-22T10:08:46.917Z,23.08
2023-03-22T10:11:24.872Z,22.80
2023-03-22T10:14:04.642Z,21.06
2023-03-22T10:16:37.077Z,22.00
2023-03-22T10:19:17.334Z,22.39
2023-03-22T10:21:49.298Z,21.71
2023-03-22T10:24:23.311Z,22.43
2023-03-22T10:26:54.528Z,22.19
2023-03-22T10:29:35.324Z,21.81
2023-03-22T10:32:16.596Z,21.84
2023-03-22T10:34:47.478Z,20.99
2023-03-22T10:37:20.561Z,19.86
2023-03-22T10:39:53.666Z,19.61
2023-03-22T10:42:26.355Z,19.71
2023-03-22T10:45:03.126Z,21.37
2023-03-22T10:47:40.413Z,22.23
2023-03-22T10:50:17.703Z,22.04
2023-03-22T10:52:52.621Z,21.83
2023-03-22T10:55:22.489Z,22.53
2023-03-22T10:58:00.358Z,23.77
2023-03-22T11:00:32.973Z,24.05
2023-03-22T11:03:03.873Z,22.37
2023-03-22T11:05:33.666Z,22.40
2023-03-22T11:08:06.781Z,23.31
2023-03-22T11:10:36.658Z,24.59
2023-03-22T11:13:23.098Z,25.69
2023-03-22T11:16:01.680Z,23.99
2023-03-22T11:18:34.092Z,24.44
2023-03-22T11:21:09.110Z,23.97
2023-03-22T11:23:43.360Z,23.36
2023-03-22T11:26:15.056Z,23.40
2023-03-22T11:28:49.773Z,23.64
2023-03-22T11:31:26.005Z,22.83
2023-03-22T11:34:00.765Z,22.48
2023-03-22T11:36:31.747Z,22.24
2023-03-22T11:39:03.702Z,22.73
2023-03-22T11:41:37.824Z,23.09
2023-03-22T11:44:10.463Z,21.80
2023-03-22T11:46:52.899Z,22.17
2023-03-22T11:49:23.667Z,22.99
2023-03-22T11:51:55.630Z,23.87
2023-03-22T11:54:33.204Z,23.80
2023-03-22T11:57:07.363Z,25.29
2023-03-22T11:59:41.593Z,25.78
2023-03-22T12:02:23.864Z,26.28
2023-03-22T12:05:01.816Z,25.64
2023-03-22T12:07:34.323Z,24.94
2023-03-22T12:10:08.985Z,23.66
2023-03-22T12:12:45.394Z,23.54
2023-03-22T12:15:20.790Z,23.76
2023-03-22T12:17:59.007Z,22.90
2023-03-22T12:20:38.079Z,23.18
2023-03-22T12:23:15.461Z,22.83
2023-03-22T12:25:49.434Z,23.15
2023-03-22T12:28:25.088Z,23.63
2023-03-22T12:30:58.763Z,23.72
2023-03-22T12:33:33.657Z,22.63
2023-03-22T12:36:05.745Z,22.49
2023-03-22T12:38:43.605Z,22.70
2023-03-22T12:41:18.196Z,22.61
2023-03-22T12:43:53.564Z,22.55
2023-03-22T12:46:26.704Z,22.25
2023-03-22T12:49:04.126Z,21.39
2023-03-22T12:51:33.956Z,21.50
2023-03-22T12:54:05.516Z,21.14
2023-03-22T12:56:41.791Z,21.06
2023-03-22T12:59:19.723Z,21.55
2023-03-22T13:01:54.455Z,21.27
2023-03-22T13:04:53.329Z,20.81
2023-03-22T13:07:41.964Z,21.18
2023-03-22T13:10:42.117Z,21.30
2023-03-22T13:13:14.812Z,21.29
2023-03-22T13:16:00.305Z,20.68
2023-03-22T13:18:42.437Z,20.37
2023-03-22T13:21:20.326Z,20.68
2023-03-22T13:24:00.749Z,21.25
2023-03-22T13:26:43.676Z,22.21
2023-03-22T13:29:20.003Z,22.86
2023-03-22T13:31:58.822Z,23.49
2023-03-22T13:34:40.957Z,23.64
2023-03-22T13:37:31.668Z,23.65
2023-03-22T13:40:02.283Z,23.76
2023-03-22T13:42:38.472Z,23.62
2023-03-22T13:45:31.510Z,22.70
2023-03-22T13:48:07.693Z,22.16
2023-03-22T13:50:38.845Z,21.61
2023-03-22T13:53:21.594Z,21.40
2023-03-22T13:56:03.680Z,21.38
2023-03-22T13:58:51.330Z,21.94
2023-03-22T14:01:29.970Z,22.66
2023-03-22T14:04:03.472Z,23.39
2023-03-22T14:06:36.653Z,23.72
2023-03-22T14:09:23.405Z,23.50
2023-03-22T14:11:59.558Z,23.51
2023-03-22T14:14:32.691Z,23.04
2023-03-22T14:17:06.598Z,22.81
2023-03-22T14:19:37.769Z,23.03
2023-03-22T14:52:40.434Z,20.21
2023-03-22T14:55:20.772Z,20.48
2023-03-22T14:57:53.385Z,20.36
2023-03-22T15:00:24.735Z,20.46
2023-03-22T15:02:59.636Z,20.40
2023-03-22T15:05:31.789Z,20.12
2023-03-22T15:08:10.683Z,19.84
2023-03-22T15:10:43.631Z,19.79
2023-03-22T15:13:14.864Z,19.95
2023-03-22T15:15:47.495Z,20.08
2023-03-22T15:18:21.168Z,19.96
2023-03-22T15:20:53.754Z,19.89
2023-03-22T15:23:25.997Z,19.44
2023-03-22T15:26:00.770Z,19.51
2023-03-22T15:28:35.796Z,19.37
2023-03-22T15:31:07.263Z,19.77
2023-03-22T15:33:39.997Z,19.61
2023-03-22T15:36:10.598Z,19.72
2023-03-22T15:38:46.761Z,19.54
2023-03-22T15:41:27.952Z,19.50
2023-03-22T15:44:07.504Z,19.27
2023-03-22T15:46:52.230Z,19.24
2023-03-22T15:49:24.575Z,19.08
2023-03-22T15:51:54.623Z,19.11
2023-03-22T15:54:33.487Z,18.82
2023-03-22T15:57:19.566Z,18.70
2023-03-22T15:59:55.681Z,18.56
2023-03-22T16:02:31.730Z,18.60
2023-03-22T16:05:03.199Z,18.66
2023-03-22T16:07:33.364Z,18.73
2023-03-22T16:10:03.283Z,18.70
2023-03-22T16:12:35.799Z,18.78
2023-03-22T16:15:05.668Z,18.76
2023-03-22T16:17:35.820Z,18.42
2023-03-22T16:20:06.490Z,18.22
2023-03-22T16:22:36.414Z,18.20
2023-03-22T16:25:06.945Z,18.15
2023-03-22T16:27:39.593Z,18.03
2023-03-22T16:30:11.244Z,17.89
2023-03-22T16:32:41.137Z,17.75
2023-03-22T16:35:18.623Z,17.85
2023-03-22T16:37:49.083Z,17.73
2023-03-22T16:40:21.166Z,17.64
2023-03-22T16:42:53.607Z,17.53
2023-03-22T16:45:26.314Z,17.36
2023-03-22T16:47:57.775Z,17.22
2023-03-22T16:50:30.303Z,17.11
2023-03-22T16:53:00.437Z,17.04
2023-03-22T16:55:32.933Z,16.92
2023-03-22T16:58:05.454Z,16.74
2023-03-22T17:00:35.532Z,16.66
2023-03-22T17:03:07.872Z,16.54
2023-03-22T17:05:39.792Z,16.43
2023-03-22T17:08:20.314Z,16.27
2023-03-22T17:10:50.213Z,16.16
2023-03-22T17:13:22.695Z,15.94
2023-03-22T17:15:53.078Z,15.76
2023-03-22T17:18:23.159Z,15.55
2023-03-22T17:20:53.077Z,15.36
2023-03-22T17:23:23.047Z,15.13
2023-03-22T17:25:53.602Z,14.96
2023-03-22T17:28:27.547Z,14.65
2023-03-22T17:30:57.985Z,14.42
2023-03-22T17:33:28.042Z,14.26
2023-03-22T17:35:59.979Z,14.01
2023-03-22T17:38:34.763Z,13.80
2023-03-22T17:41:14.356Z,13.67
2023-03-22T17:43:46.867Z,13.54
2023-03-22T17:46:58.378Z,13.39
2023-03-22T17:49:06.847Z,13.17
2023-03-22T17:51:36.869Z,13.09
2023-03-22T17:54:51.706Z,12.87
2023-03-22T17:57:32.195Z,12.78
2023-03-22T17:59:49.638Z,12.61
2023-03-22T18:02:27.211Z,12.53
2023-03-22T18:04:57.710Z,12.36
2023-03-22T18:07:27.768Z,12.24
2023-03-22T18:09:57.656Z,12.24
2023-03-22T18:12:27.819Z,12.12
2023-03-22T18:15:00.334Z,12.05
2023-03-22T18:17:30.296Z,11.94
2023-03-22T18:20:12.535Z,11.88
2023-03-22T18:22:51.207Z,11.88
2023-03-22T18:25:23.540Z,11.88
2023-03-22T18:27:55.525Z,11.85
2023-03-22T18:30:28.668Z,11.89
2023-03-22T18:33:05.937Z,11.91
2023-03-22T18:35:36.258Z,11.96
2023-03-22T18:38:07.505Z,11.94
2023-03-22T18:41:14.181Z,11.98
2023-03-22T18:43:27.502Z,11.92
2023-03-22T18:46:05.511Z,11.88
2023-03-22T18:48:47.188Z,11.71
2023-03-22T18:51:17.179Z,11.62
2023-03-22T18:53:47.018Z,11.53
2023-03-22T18:56:17.975Z,11.47
2023-03-22T18:58:48.056Z,11.42
2023-03-22T19:01:20.786Z,11.38
2023-03-22T19:03:52.431Z,11.27
2023-03-22T19:06:22.653Z,11.24
2023-03-22T19:08:53.004Z,11.17
2023-03-22T19:11:23.402Z,11.10
2023-03-22T19:16:39.179Z,11.13
2023-03-22T19:19:09.549Z,11.14
2023-03-22T19:21:39.683Z,11.08
2023-03-22T19:24:10.801Z,11.07
2023-03-22T19:26:47.693Z,11.09
2023-03-22T19:29:25.663Z,11.05
2023-03-22T19:31:58.678Z,11.04
2023-03-22T19:34:31.766Z,11.11
2023-03-22T19:37:02.371Z,11.08
2023-03-22T19:39:32.896Z,11.08
2023-03-22T19:42:06.733Z,11.11
2023-03-22T19:44:37.264Z,11.15
2023-03-22T19:47:13.808Z,11.16
2023-03-22T19:49:46.091Z,11.25
2023-03-22T19:52:16.783Z,11.27
2023-03-22T19:54:47.367Z,11.27
2023-03-22T19:57:18.918Z,11.30
2023-03-22T20:00:11.874Z,11.32
2023-03-22T20:02:42.414Z,11.28
2023-03-22T20:05:17.668Z,11.25
2023-03-22T20:07:48.211Z,11.21
2023-03-22T20:10:18.579Z,11.20
2023-03-22T20:12:49.410Z,11.18
2023-03-22T20:15:19.509Z,11.13
2023-03-22T20:17:52.297Z,11.14
2023-03-22T20:20:22.232Z,11.08
2023-03-22T20:22:54.183Z,11.04
2023-03-22T20:25:24.538Z,11.03
2023-03-22T20:27:55.819Z,11.05
2023-03-22T20:30:27.322Z,10.96
2023-03-22T20:32:59.723Z,10.86
2023-03-22T20:35:29.739Z,10.77
2023-03-22T20:37:59.667Z,10.70
2023-03-22T20:40:30.219Z,10.72
2023-03-22T20:43:00.112Z,10.72
2023-03-22T20:45:30.101Z,10.68
2023-03-22T20:48:02.753Z,10.73
2023-03-22T20:50:32.734Z,10.68
2023-03-22T20:53:02.658Z,10.68
2023-03-22T20:55:32.837Z,10.69
2023-03-22T20:58:02.790Z,10.68
2023-03-22T21:00:32.776Z,10.71
2023-03-22T21:03:05.149Z,10.77
2023-03-22T21:05:35.014Z,10.79
2023-03-22T21:08:05.098Z,10.86
2023-03-22T21:10:35.665Z,10.87
2023-03-22T21:13:05.877Z,10.93
2023-03-22T21:15:35.849Z,10.99
2023-03-22T21:18:08.468Z,10.96
2023-03-22T21:20:38.522Z,10.98
2023-03-22T21:23:08.371Z,10.96
2023-03-22T21:25:38.312Z,11.01
2023-03-22T21:28:09.532Z,11.03
2023-03-22T21:30:41.659Z,11.00
2023-03-22T21:33:14.246Z,11.02
2023-03-22T21:35:46.282Z,10.98
2023-03-22T21:38:18.701Z,11.06
2023-03-22T21:40:50.181Z,11.07
2023-03-22T21:43:20.476Z,11.13
2023-03-22T21:45:55.390Z,11.13
2023-03-22T21:48:29.434Z,11.22
2023-03-22T21:50:59.601Z,11.24
2023-03-22T21:53:29.562Z,11.32
2023-03-22T21:55:59.507Z,11.30
2023-03-22T21:58:29.480Z,11.33
2023-03-22T22:01:02.004Z,11.55
2023-03-22T22:03:34.985Z,11.65
2023-03-22T22:06:04.907Z,11.65
2023-03-22T22:08:34.806Z,11.66
2023-03-22T22:11:07.073Z,11.69
2023-03-22T22:13:37.791Z,11.67
2023-03-22T22:16:11.931Z,11.66
2023-03-22T22:18:46.604Z,11.72
2023-03-22T22:21:21.039Z,11.75
2023-03-22T22:23:51.617Z,11.84
2023-03-22T22:26:21.753Z,12.08
2023-03-22T22:28:55.922Z,12.08
2023-03-22T22:31:30.361Z,12.10
2023-03-22T22:34:03.636Z,12.19
2023-03-22T22:36:33.470Z,12.27
2023-03-22T22:39:04.736Z,12.29
2023-03-22T22:41:35.189Z,12.35
2023-03-22T22:44:05.048Z,12.33
2023-03-22T22:46:34.934Z,12.42
2023-03-22T22:49:07.545Z,12.45
2023-03-22T22:51:37.427Z,12.47
2023-03-22T22:54:07.504Z,12.43
2023-03-22T22:56:37.461Z,12.56
2023-03-22T22:59:07.623Z,12.57
2023-03-22T23:01:37.921Z,12.54
2023-03-22T23:04:10.411Z,12.58
2023-03-22T23:06:40.749Z,12.62
2023-03-22T23:09:12.077Z,12.66
2023-03-22T23:11:42.394Z,12.58
2023-03-22T23:14:12.278Z,12.59
2023-03-22T23:16:47.001Z,12.69
2023-03-22T23:19:27.026Z,12.69
2023-03-22T23:22:00.876Z,12.63
2023-03-22T23:24:32.005Z,12.53
2023-03-22T23:27:02.173Z,12.63
2023-03-22T23:29:34.374Z,12.67
2023-03-22T23:32:04.263Z,12.59
2023-03-22T23:34:36.930Z,12.57
2023-03-22T23:37:10.890Z,12.56
2023-03-22T23:39:40.984Z,12.50
2023-03-22T23:42:10.838Z,12.51
2023-03-22T23:44:40.845Z,12.52
2023-03-22T23:47:10.766Z,12.51
2023-03-22T23:49:43.250Z,12.54
2023-03-22T23:52:13.167Z,12.53
2023-03-22T23:54:43.162Z,12.48
2023-03-22T23:57:15.513Z,12.47
2023-03-22T23:59:45.525Z,12.39
